sensor_id;sensor_type;location;lat;lon;timestamp;P1;durP1;ratioP1;P2;durP2;ratioP2
61505;SDS011;47366;51.916;4.574;2024-01-30T00:01:37;5.90;;;2.10;;
61505;SDS011;47366;51.916;4.574;2024-01-30T00:04:03;2.17;;;1.55;;
61505;SDS011;47366;51.916;4.574;2024-01-30T00:06:28;3.50;;;2.08;;
61505;SDS011;47366;51.916;4.574;2024-01-30T00:08:53;2.72;;;1.77;;
61505;SDS011;47366;51.916;4.574;2024-01-30T00:11:19;4.25;;;2.58;;
61505;SDS011;47366;51.916;4.574;2024-01-30T00:13:44;3.65;;;2.28;;
61505;SDS011;47366;51.916;4.574;2024-01-30T00:16:19;2.67;;;1.90;;
61505;SDS011;47366;51.916;4.574;2024-01-30T00:18:51;2.53;;;1.50;;
61505;SDS011;47366;51.916;4.574;2024-01-30T00:21:17;3.22;;;1.73;;
61505;SDS011;47366;51.916;4.574;2024-01-30T00:23:42;4.47;;;1.70;;
61505;SDS011;47366;51.916;4.574;2024-01-30T00:26:08;3.78;;;2.30;;
61505;SDS011;47366;51.916;4.574;2024-01-30T00:28:33;3.78;;;2.65;;
61505;SDS011;47366;51.916;4.574;2024-01-30T00:30:58;5.78;;;2.50;;
61505;SDS011;47366;51.916;4.574;2024-01-30T00:33:23;3.72;;;2.00;;
61505;SDS011;47366;51.916;4.574;2024-01-30T00:35:49;5.65;;;2.58;;
61505;SDS011;47366;51.916;4.574;2024-01-30T00:38:14;4.03;;;2.13;;
61505;SDS011;47366;51.916;4.574;2024-01-30T00:40:39;4.03;;;2.22;;
61505;SDS011;47366;51.916;4.574;2024-01-30T00:43:05;5.82;;;1.60;;
61505;SDS011;47366;51.916;4.574;2024-01-30T00:45:31;4.43;;;2.50;;
61505;SDS011;47366;51.916;4.574;2024-01-30T00:47:56;3.58;;;1.88;;
61505;SDS011;47366;51.916;4.574;2024-01-30T00:50:21;3.53;;;2.33;;
61505;SDS011;47366;51.916;4.574;2024-01-30T00:52:47;2.35;;;1.73;;
61505;SDS011;47366;51.916;4.574;2024-01-30T00:55:12;4.90;;;1.98;;
61505;SDS011;47366;51.916;4.574;2024-01-30T00:57:39;3.47;;;2.13;;
61505;SDS011;47366;51.916;4.574;2024-01-30T01:00:04;3.17;;;2.10;;
61505;SDS011;47366;51.916;4.574;2024-01-30T01:02:33;4.03;;;1.63;;
61505;SDS011;47366;51.916;4.574;2024-01-30T01:04:59;4.13;;;2.17;;
61505;SDS011;47366;51.916;4.574;2024-01-30T01:07:24;6.30;;;2.42;;
61505;SDS011;47366;51.916;4.574;2024-01-30T01:09:50;3.30;;;2.20;;
61505;SDS011;47366;51.916;4.574;2024-01-30T01:12:15;3.90;;;2.40;;
61505;SDS011;47366;51.916;4.574;2024-01-30T01:14:40;3.28;;;1.90;;
61505;SDS011;47366;51.916;4.574;2024-01-30T01:17:06;1.65;;;1.35;;
61505;SDS011;47366;51.916;4.574;2024-01-30T01:19:32;3.10;;;1.92;;
61505;SDS011;47366;51.916;4.574;2024-01-30T01:21:57;3.17;;;1.75;;
61505;SDS011;47366;51.916;4.574;2024-01-30T01:24:23;3.95;;;2.30;;
61505;SDS011;47366;51.916;4.574;2024-01-30T01:26:49;5.68;;;2.40;;
61505;SDS011;47366;51.916;4.574;2024-01-30T01:29:14;3.45;;;2.22;;
61505;SDS011;47366;51.916;4.574;2024-01-30T01:31:40;2.50;;;1.70;;
61505;SDS011;47366;51.916;4.574;2024-01-30T01:34:09;3.58;;;2.22;;
61505;SDS011;47366;51.916;4.574;2024-01-30T01:36:35;4.70;;;2.53;;
61505;SDS011;47366;51.916;4.574;2024-01-30T01:39:01;6.20;;;2.00;;
61505;SDS011;47366;51.916;4.574;2024-01-30T01:41:29;5.13;;;2.22;;
61505;SDS011;47366;51.916;4.574;2024-01-30T01:43:56;3.45;;;2.17;;
61505;SDS011;47366;51.916;4.574;2024-01-30T01:46:21;3.00;;;1.83;;
61505;SDS011;47366;51.916;4.574;2024-01-30T01:48:47;3.83;;;2.20;;
61505;SDS011;47366;51.916;4.574;2024-01-30T01:51:13;4.10;;;2.33;;
61505;SDS011;47366;51.916;4.574;2024-01-30T01:53:39;4.00;;;2.25;;
61505;SDS011;47366;51.916;4.574;2024-01-30T01:56:05;2.35;;;1.88;;
61505;SDS011;47366;51.916;4.574;2024-01-30T01:58:31;3.05;;;2.13;;
61505;SDS011;47366;51.916;4.574;2024-01-30T02:00:59;3.22;;;1.75;;
61505;SDS011;47366;51.916;4.574;2024-01-30T02:03:25;3.08;;;2.10;;
61505;SDS011;47366;51.916;4.574;2024-01-30T02:05:50;1.98;;;1.52;;
61505;SDS011;47366;51.916;4.574;2024-01-30T02:08:16;5.75;;;1.88;;
61505;SDS011;47366;51.916;4.574;2024-01-30T02:10:42;3.40;;;2.15;;
61505;SDS011;47366;51.916;4.574;2024-01-30T02:13:07;3.78;;;2.60;;
61505;SDS011;47366;51.916;4.574;2024-01-30T02:15:33;9.02;;;1.77;;
61505;SDS011;47366;51.916;4.574;2024-01-30T02:17:58;2.53;;;1.92;;
61505;SDS011;47366;51.916;4.574;2024-01-30T02:20:24;3.42;;;2.20;;
61505;SDS011;47366;51.916;4.574;2024-01-30T02:22:50;1.85;;;1.23;;
61505;SDS011;47366;51.916;4.574;2024-01-30T02:25:18;2.08;;;1.42;;
61505;SDS011;47366;51.916;4.574;2024-01-30T02:27:43;1.90;;;1.48;;
61505;SDS011;47366;51.916;4.574;2024-01-30T02:30:09;5.93;;;2.67;;
61505;SDS011;47366;51.916;4.574;2024-01-30T02:32:35;2.58;;;1.70;;
61505;SDS011;47366;51.916;4.574;2024-01-30T02:35:00;3.05;;;1.83;;
61505;SDS011;47366;51.916;4.574;2024-01-30T02:37:26;4.05;;;1.73;;
61505;SDS011;47366;51.916;4.574;2024-01-30T02:39:51;5.15;;;2.15;;
61505;SDS011;47366;51.916;4.574;2024-01-30T02:42:16;4.18;;;2.17;;
61505;SDS011;47366;51.916;4.574;2024-01-30T02:44:42;2.97;;;1.58;;
61505;SDS011;47366;51.916;4.574;2024-01-30T02:47:07;3.22;;;1.80;;
61505;SDS011;47366;51.916;4.574;2024-01-30T02:49:32;2.80;;;1.98;;
61505;SDS011;47366;51.916;4.574;2024-01-30T02:51:58;2.55;;;1.77;;
61505;SDS011;47366;51.916;4.574;2024-01-30T02:54:23;4.80;;;1.98;;
61505;SDS011;47366;51.916;4.574;2024-01-30T02:56:48;1.92;;;1.42;;
61505;SDS011;47366;51.916;4.574;2024-01-30T02:59:14;2.75;;;1.95;;
61505;SDS011;47366;51.916;4.574;2024-01-30T03:01:43;1.70;;;1.35;;
61505;SDS011;47366;51.916;4.574;2024-01-30T03:04:09;2.38;;;1.55;;
61505;SDS011;47366;51.916;4.574;2024-01-30T03:06:34;2.22;;;1.63;;
61505;SDS011;47366;51.916;4.574;2024-01-30T03:09:00;1.60;;;1.13;;
61505;SDS011;47366;51.916;4.574;2024-01-30T03:11:25;4.53;;;2.25;;
61505;SDS011;47366;51.916;4.574;2024-01-30T03:13:50;2.42;;;1.85;;
61505;SDS011;47366;51.916;4.574;2024-01-30T03:16:16;4.13;;;2.30;;
61505;SDS011;47366;51.916;4.574;2024-01-30T03:18:41;2.92;;;1.73;;
61505;SDS011;47366;51.916;4.574;2024-01-30T03:21:07;4.18;;;1.33;;
61505;SDS011;47366;51.916;4.574;2024-01-30T03:23:32;2.60;;;1.95;;
61505;SDS011;47366;51.916;4.574;2024-01-30T03:25:57;2.40;;;1.75;;
61505;SDS011;47366;51.916;4.574;2024-01-30T03:28:23;4.18;;;2.35;;
61505;SDS011;47366;51.916;4.574;2024-01-30T03:30:48;3.05;;;2.00;;
61505;SDS011;47366;51.916;4.574;2024-01-30T03:33:13;2.15;;;1.35;;
61505;SDS011;47366;51.916;4.574;2024-01-30T03:35:39;3.38;;;2.20;;
61505;SDS011;47366;51.916;4.574;2024-01-30T03:38:04;3.65;;;2.03;;
61505;SDS011;47366;51.916;4.574;2024-01-30T03:40:29;3.33;;;1.65;;
61505;SDS011;47366;51.916;4.574;2024-01-30T03:42:55;1.60;;;1.17;;
61505;SDS011;47366;51.916;4.574;2024-01-30T03:45:20;3.78;;;1.98;;
61505;SDS011;47366;51.916;4.574;2024-01-30T03:47:45;4.03;;;2.15;;
61505;SDS011;47366;51.916;4.574;2024-01-30T03:50:11;2.28;;;1.73;;
61505;SDS011;47366;51.916;4.574;2024-01-30T03:52:36;3.08;;;1.95;;
61505;SDS011;47366;51.916;4.574;2024-01-30T03:55:01;1.75;;;1.42;;
61505;SDS011;47366;51.916;4.574;2024-01-30T03:57:27;2.58;;;1.95;;
61505;SDS011;47366;51.916;4.574;2024-01-30T03:59:52;2.28;;;1.52;;
61505;SDS011;47366;51.916;4.574;2024-01-30T04:02:18;3.38;;;1.70;;
61505;SDS011;47366;51.916;4.574;2024-01-30T04:04:43;3.03;;;2.10;;
61505;SDS011;47366;51.916;4.574;2024-01-30T04:07:09;5.40;;;1.70;;
61505;SDS011;47366;51.916;4.574;2024-01-30T04:09:34;1.85;;;1.45;;
61505;SDS011;47366;51.916;4.574;2024-01-30T04:11:59;2.85;;;1.48;;
61505;SDS011;47366;51.916;4.574;2024-01-30T04:14:25;2.13;;;1.50;;
61505;SDS011;47366;51.916;4.574;2024-01-30T04:16:50;4.72;;;1.90;;
61505;SDS011;47366;51.916;4.574;2024-01-30T04:19:15;2.50;;;1.80;;
61505;SDS011;47366;51.916;4.574;2024-01-30T04:21:41;3.47;;;1.60;;
61505;SDS011;47366;51.916;4.574;2024-01-30T04:24:06;9.10;;;2.20;;
61505;SDS011;47366;51.916;4.574;2024-01-30T04:26:31;3.78;;;1.90;;
61505;SDS011;47366;51.916;4.574;2024-01-30T04:28:57;2.13;;;1.48;;
61505;SDS011;47366;51.916;4.574;2024-01-30T04:31:22;2.83;;;1.65;;
61505;SDS011;47366;51.916;4.574;2024-01-30T04:33:47;3.40;;;1.83;;
61505;SDS011;47366;51.916;4.574;2024-01-30T04:36:13;2.80;;;1.92;;
61505;SDS011;47366;51.916;4.574;2024-01-30T04:38:38;1.88;;;1.50;;
61505;SDS011;47366;51.916;4.574;2024-01-30T04:41:04;6.15;;;1.98;;
61505;SDS011;47366;51.916;4.574;2024-01-30T04:43:30;4.40;;;1.95;;
61505;SDS011;47366;51.916;4.574;2024-01-30T04:45:55;3.03;;;1.58;;
61505;SDS011;47366;51.916;4.574;2024-01-30T04:48:21;3.60;;;1.85;;
61505;SDS011;47366;51.916;4.574;2024-01-30T04:50:46;4.35;;;2.03;;
61505;SDS011;47366;51.916;4.574;2024-01-30T04:53:11;3.97;;;2.53;;
61505;SDS011;47366;51.916;4.574;2024-01-30T04:55:37;3.55;;;2.60;;
61505;SDS011;47366;51.916;4.574;2024-01-30T04:58:02;2.80;;;1.75;;
61505;SDS011;47366;51.916;4.574;2024-01-30T05:00:27;5.22;;;2.35;;
61505;SDS011;47366;51.916;4.574;2024-01-30T05:02:54;1.42;;;1.05;;
61505;SDS011;47366;51.916;4.574;2024-01-30T05:05:20;12.68;;;1.77;;
61505;SDS011;47366;51.916;4.574;2024-01-30T05:07:46;3.25;;;2.03;;
61505;SDS011;47366;51.916;4.574;2024-01-30T05:10:12;7.35;;;2.15;;
61505;SDS011;47366;51.916;4.574;2024-01-30T05:12:38;1.58;;;1.35;;
61505;SDS011;47366;51.916;4.574;2024-01-30T05:15:04;4.38;;;2.13;;
61505;SDS011;47366;51.916;4.574;2024-01-30T05:17:29;2.22;;;1.38;;
61505;SDS011;47366;51.916;4.574;2024-01-30T05:19:55;2.47;;;1.65;;
61505;SDS011;47366;51.916;4.574;2024-01-30T05:22:20;2.47;;;1.88;;
61505;SDS011;47366;51.916;4.574;2024-01-30T05:24:45;3.10;;;1.98;;
61505;SDS011;47366;51.916;4.574;2024-01-30T05:27:11;1.83;;;1.40;;
61505;SDS011;47366;51.916;4.574;2024-01-30T05:29:38;1.88;;;1.38;;
61505;SDS011;47366;51.916;4.574;2024-01-30T05:32:04;2.33;;;1.48;;
61505;SDS011;47366;51.916;4.574;2024-01-30T05:34:30;2.70;;;2.05;;
61505;SDS011;47366;51.916;4.574;2024-01-30T05:36:56;2.20;;;1.50;;
61505;SDS011;47366;51.916;4.574;2024-01-30T05:39:21;3.42;;;2.15;;
61505;SDS011;47366;51.916;4.574;2024-01-30T05:41:46;2.50;;;1.73;;
61505;SDS011;47366;51.916;4.574;2024-01-30T05:44:12;3.72;;;1.80;;
61505;SDS011;47366;51.916;4.574;2024-01-30T05:46:37;3.15;;;2.13;;
61505;SDS011;47366;51.916;4.574;2024-01-30T05:49:02;6.47;;;2.00;;
61505;SDS011;47366;51.916;4.574;2024-01-30T05:51:28;3.55;;;1.80;;
61505;SDS011;47366;51.916;4.574;2024-01-30T05:53:53;3.38;;;2.00;;
61505;SDS011;47366;51.916;4.574;2024-01-30T05:56:19;5.50;;;2.60;;
61505;SDS011;47366;51.916;4.574;2024-01-30T05:58:44;5.63;;;2.38;;
61505;SDS011;47366;51.916;4.574;2024-01-30T06:01:09;2.35;;;1.48;;
61505;SDS011;47366;51.916;4.574;2024-01-30T06:03:35;8.13;;;2.05;;
61505;SDS011;47366;51.916;4.574;2024-01-30T06:06:01;4.68;;;2.67;;
61505;SDS011;47366;51.916;4.574;2024-01-30T06:08:26;4.82;;;2.00;;
61505;SDS011;47366;51.916;4.574;2024-01-30T06:10:51;2.15;;;1.55;;
61505;SDS011;47366;51.916;4.574;2024-01-30T06:13:17;2.45;;;1.63;;
61505;SDS011;47366;51.916;4.574;2024-01-30T06:15:42;3.17;;;2.05;;
61505;SDS011;47366;51.916;4.574;2024-01-30T06:18:08;2.53;;;1.92;;
61505;SDS011;47366;51.916;4.574;2024-01-30T06:20:33;4.70;;;2.22;;
61505;SDS011;47366;51.916;4.574;2024-01-30T06:22:59;4.70;;;1.92;;
61505;SDS011;47366;51.916;4.574;2024-01-30T06:25:24;2.33;;;1.35;;
61505;SDS011;47366;51.916;4.574;2024-01-30T06:27:49;6.30;;;2.60;;
61505;SDS011;47366;51.916;4.574;2024-01-30T06:30:15;2.50;;;1.50;;
61505;SDS011;47366;51.916;4.574;2024-01-30T06:32:40;3.85;;;2.67;;
61505;SDS011;47366;51.916;4.574;2024-01-30T06:35:06;4.40;;;1.60;;
61505;SDS011;47366;51.916;4.574;2024-01-30T06:37:31;1.73;;;1.48;;
61505;SDS011;47366;51.916;4.574;2024-01-30T06:39:57;3.20;;;1.92;;
61505;SDS011;47366;51.916;4.574;2024-01-30T06:42:22;2.55;;;1.55;;
61505;SDS011;47366;51.916;4.574;2024-01-30T06:44:47;1.67;;;1.45;;
61505;SDS011;47366;51.916;4.574;2024-01-30T06:47:13;6.50;;;2.15;;
61505;SDS011;47366;51.916;4.574;2024-01-30T06:49:38;3.25;;;1.67;;
61505;SDS011;47366;51.916;4.574;2024-01-30T06:52:06;3.03;;;2.33;;
61505;SDS011;47366;51.916;4.574;2024-01-30T06:54:32;2.83;;;1.90;;
61505;SDS011;47366;51.916;4.574;2024-01-30T06:56:58;5.88;;;2.38;;
61505;SDS011;47366;51.916;4.574;2024-01-30T06:59:23;3.72;;;2.33;;
61505;SDS011;47366;51.916;4.574;2024-01-30T07:01:49;3.22;;;1.48;;
61505;SDS011;47366;51.916;4.574;2024-01-30T07:04:14;2.10;;;1.58;;
61505;SDS011;47366;51.916;4.574;2024-01-30T07:06:40;3.85;;;2.05;;
61505;SDS011;47366;51.916;4.574;2024-01-30T07:09:06;1.83;;;1.48;;
61505;SDS011;47366;51.916;4.574;2024-01-30T07:11:31;2.22;;;1.67;;
61505;SDS011;47366;51.916;4.574;2024-01-30T07:13:57;1.73;;;1.33;;
61505;SDS011;47366;51.916;4.574;2024-01-30T07:16:22;6.22;;;2.60;;
61505;SDS011;47366;51.916;4.574;2024-01-30T07:18:48;3.83;;;2.10;;
61505;SDS011;47366;51.916;4.574;2024-01-30T07:21:14;4.85;;;2.08;;
61505;SDS011;47366;51.916;4.574;2024-01-30T07:23:40;3.13;;;1.90;;
61505;SDS011;47366;51.916;4.574;2024-01-30T07:26:06;2.80;;;2.00;;
61505;SDS011;47366;51.916;4.574;2024-01-30T07:28:31;2.15;;;1.35;;
61505;SDS011;47366;51.916;4.574;2024-01-30T07:30:57;1.60;;;1.02;;
61505;SDS011;47366;51.916;4.574;2024-01-30T07:33:22;2.45;;;2.00;;
61505;SDS011;47366;51.916;4.574;2024-01-30T07:35:48;2.97;;;1.70;;
61505;SDS011;47366;51.916;4.574;2024-01-30T07:38:13;6.00;;;2.15;;
61505;SDS011;47366;51.916;4.574;2024-01-30T07:40:39;1.25;;;1.13;;
61505;SDS011;47366;51.916;4.574;2024-01-30T07:43:04;2.95;;;1.73;;
61505;SDS011;47366;51.916;4.574;2024-01-30T07:45:30;2.83;;;1.50;;
61505;SDS011;47366;51.916;4.574;2024-01-30T07:47:58;2.40;;;1.75;;
61505;SDS011;47366;51.916;4.574;2024-01-30T07:50:25;2.00;;;1.35;;
61505;SDS011;47366;51.916;4.574;2024-01-30T07:52:50;2.50;;;1.60;;
61505;SDS011;47366;51.916;4.574;2024-01-30T07:55:19;1.67;;;1.23;;
61505;SDS011;47366;51.916;4.574;2024-01-30T07:57:53;3.17;;;1.60;;
61505;SDS011;47366;51.916;4.574;2024-01-30T08:00:20;4.47;;;1.85;;
61505;SDS011;47366;51.916;4.574;2024-01-30T08:02:52;6.65;;;1.58;;
61505;SDS011;47366;51.916;4.574;2024-01-30T08:05:20;2.35;;;1.38;;
61505;SDS011;47366;51.916;4.574;2024-01-30T08:07:48;3.15;;;1.83;;
61505;SDS011;47366;51.916;4.574;2024-01-30T08:10:14;2.03;;;1.58;;
61505;SDS011;47366;51.916;4.574;2024-01-30T08:12:40;4.03;;;1.55;;
61505;SDS011;47366;51.916;4.574;2024-01-30T08:15:06;3.03;;;1.92;;
61505;SDS011;47366;51.916;4.574;2024-01-30T08:17:32;1.58;;;1.20;;
61505;SDS011;47366;51.916;4.574;2024-01-30T08:19:58;2.92;;;2.08;;
61505;SDS011;47366;51.916;4.574;2024-01-30T08:22:23;3.85;;;1.83;;
61505;SDS011;47366;51.916;4.574;2024-01-30T08:24:48;2.80;;;1.70;;
61505;SDS011;47366;51.916;4.574;2024-01-30T08:27:14;3.20;;;2.15;;
61505;SDS011;47366;51.916;4.574;2024-01-30T08:29:39;1.95;;;1.40;;
61505;SDS011;47366;51.916;4.574;2024-01-30T08:32:05;2.28;;;1.55;;
61505;SDS011;47366;51.916;4.574;2024-01-30T08:34:31;2.22;;;1.80;;
61505;SDS011;47366;51.916;4.574;2024-01-30T08:36:57;2.80;;;1.85;;
61505;SDS011;47366;51.916;4.574;2024-01-30T08:39:22;3.30;;;1.67;;
61505;SDS011;47366;51.916;4.574;2024-01-30T08:41:47;3.70;;;1.98;;
61505;SDS011;47366;51.916;4.574;2024-01-30T08:44:13;2.88;;;1.73;;
61505;SDS011;47366;51.916;4.574;2024-01-30T08:46:38;2.28;;;1.77;;
61505;SDS011;47366;51.916;4.574;2024-01-30T08:49:04;3.53;;;2.28;;
61505;SDS011;47366;51.916;4.574;2024-01-30T08:51:29;8.77;;;2.17;;
61505;SDS011;47366;51.916;4.574;2024-01-30T08:53:57;3.25;;;1.52;;
61505;SDS011;47366;51.916;4.574;2024-01-30T08:56:24;2.92;;;1.73;;
61505;SDS011;47366;51.916;4.574;2024-01-30T08:58:49;3.95;;;1.80;;
61505;SDS011;47366;51.916;4.574;2024-01-30T09:01:15;5.45;;;2.78;;
61505;SDS011;47366;51.916;4.574;2024-01-30T09:03:41;2.95;;;1.73;;
61505;SDS011;47366;51.916;4.574;2024-01-30T09:06:08;6.05;;;2.40;;
61505;SDS011;47366;51.916;4.574;2024-01-30T09:08:35;2.13;;;1.35;;
61505;SDS011;47366;51.916;4.574;2024-01-30T09:11:00;4.75;;;1.95;;
61505;SDS011;47366;51.916;4.574;2024-01-30T09:13:25;4.03;;;2.22;;
61505;SDS011;47366;51.916;4.574;2024-01-30T09:15:51;2.63;;;1.65;;
61505;SDS011;47366;51.916;4.574;2024-01-30T09:18:16;2.95;;;1.85;;
61505;SDS011;47366;51.916;4.574;2024-01-30T09:20:41;3.95;;;1.73;;
61505;SDS011;47366;51.916;4.574;2024-01-30T09:23:07;3.03;;;2.08;;
61505;SDS011;47366;51.916;4.574;2024-01-30T09:25:33;6.78;;;2.05;;
61505;SDS011;47366;51.916;4.574;2024-01-30T09:27:59;3.53;;;1.67;;
61505;SDS011;47366;51.916;4.574;2024-01-30T09:30:24;5.53;;;1.98;;
61505;SDS011;47366;51.916;4.574;2024-01-30T09:32:50;7.18;;;2.28;;
61505;SDS011;47366;51.916;4.574;2024-01-30T09:35:15;8.52;;;2.47;;
61505;SDS011;47366;51.916;4.574;2024-01-30T09:37:40;2.72;;;1.85;;
61505;SDS011;47366;51.916;4.574;2024-01-30T09:40:07;2.58;;;1.92;;
61505;SDS011;47366;51.916;4.574;2024-01-30T09:42:34;1.77;;;1.13;;
61505;SDS011;47366;51.916;4.574;2024-01-30T09:45:04;6.97;;;2.30;;
61505;SDS011;47366;51.916;4.574;2024-01-30T09:47:40;3.53;;;1.85;;
61505;SDS011;47366;51.916;4.574;2024-01-30T09:50:09;3.97;;;2.33;;
61505;SDS011;47366;51.916;4.574;2024-01-30T09:52:36;4.68;;;2.28;;
61505;SDS011;47366;51.916;4.574;2024-01-30T09:55:02;9.40;;;2.67;;
61505;SDS011;47366;51.916;4.574;2024-01-30T09:57:28;3.92;;;2.58;;
61505;SDS011;47366;51.916;4.574;2024-01-30T09:59:53;3.38;;;2.28;;
61505;SDS011;47366;51.916;4.574;2024-01-30T10:02:19;5.13;;;2.15;;
61505;SDS011;47366;51.916;4.574;2024-01-30T10:04:47;4.57;;;1.80;;
61505;SDS011;47366;51.916;4.574;2024-01-30T10:07:13;1.90;;;1.55;;
61505;SDS011;47366;51.916;4.574;2024-01-30T10:09:39;3.13;;;1.67;;
61505;SDS011;47366;51.916;4.574;2024-01-30T10:12:05;3.35;;;1.40;;
61505;SDS011;47366;51.916;4.574;2024-01-30T10:14:31;2.03;;;1.35;;
61505;SDS011;47366;51.916;4.574;2024-01-30T10:16:57;4.18;;;1.33;;
61505;SDS011;47366;51.916;4.574;2024-01-30T10:19:23;2.35;;;1.60;;
61505;SDS011;47366;51.916;4.574;2024-01-30T10:21:48;2.35;;;1.50;;
61505;SDS011;47366;51.916;4.574;2024-01-30T10:24:14;1.98;;;1.10;;
61505;SDS011;47366;51.916;4.574;2024-01-30T10:26:39;0.82;;;0.70;;
61505;SDS011;47366;51.916;4.574;2024-01-30T10:29:05;1.00;;;0.63;;
61505;SDS011;47366;51.916;4.574;2024-01-30T10:31:30;2.15;;;0.55;;
61505;SDS011;47366;51.916;4.574;2024-01-30T10:33:56;4.72;;;0.60;;
61505;SDS011;47366;51.916;4.574;2024-01-30T10:36:21;1.77;;;0.50;;
61505;SDS011;47366;51.916;4.574;2024-01-30T10:38:53;0.40;;;0.38;;
61505;SDS011;47366;51.916;4.574;2024-01-30T10:41:25;2.60;;;0.98;;
61505;SDS011;47366;51.916;4.574;2024-01-30T10:44:02;0.28;;;0.25;;
61505;SDS011;47366;51.916;4.574;2024-01-30T10:46:33;1.55;;;0.80;;
61505;SDS011;47366;51.916;4.574;2024-01-30T10:49:00;1.08;;;0.57;;
61505;SDS011;47366;51.916;4.574;2024-01-30T10:51:29;1.63;;;0.40;;
61505;SDS011;47366;51.916;4.574;2024-01-30T10:53:55;0.90;;;0.65;;
61505;SDS011;47366;51.916;4.574;2024-01-30T10:56:21;0.88;;;0.43;;
61505;SDS011;47366;51.916;4.574;2024-01-30T10:58:51;0.70;;;0.52;;
61505;SDS011;47366;51.916;4.574;2024-01-30T11:01:18;1.38;;;0.82;;
61505;SDS011;47366;51.916;4.574;2024-01-30T11:03:45;1.08;;;0.75;;
61505;SDS011;47366;51.916;4.574;2024-01-30T11:06:11;4.22;;;0.88;;
61505;SDS011;47366;51.916;4.574;2024-01-30T11:08:43;0.30;;;0.30;;
61505;SDS011;47366;51.916;4.574;2024-01-30T11:11:09;0.45;;;0.45;;
61505;SDS011;47366;51.916;4.574;2024-01-30T11:13:35;0.80;;;0.22;;
61505;SDS011;47366;51.916;4.574;2024-01-30T11:16:01;1.02;;;0.50;;
61505;SDS011;47366;51.916;4.574;2024-01-30T11:18:32;2.20;;;0.52;;
61505;SDS011;47366;51.916;4.574;2024-01-30T11:20:59;0.40;;;0.20;;
61505;SDS011;47366;51.916;4.574;2024-01-30T11:23:26;0.70;;;0.30;;
61505;SDS011;47366;51.916;4.574;2024-01-30T11:25:53;2.20;;;0.55;;
61505;SDS011;47366;51.916;4.574;2024-01-30T11:28:19;1.27;;;0.20;;
61505;SDS011;47366;51.916;4.574;2024-01-30T11:30:46;1.65;;;0.60;;
61505;SDS011;47366;51.916;4.574;2024-01-30T11:33:13;0.20;;;0.20;;
61505;SDS011;47366;51.916;4.574;2024-01-30T11:35:42;0.63;;;0.20;;
61505;SDS011;47366;51.916;4.574;2024-01-30T11:38:09;1.10;;;0.35;;
61505;SDS011;47366;51.916;4.574;2024-01-30T11:40:37;0.17;;;0.17;;
61505;SDS011;47366;51.916;4.574;2024-01-30T11:43:04;0.32;;;0.15;;
61505;SDS011;47366;51.916;4.574;2024-01-30T11:45:31;0.52;;;0.40;;
61505;SDS011;47366;51.916;4.574;2024-01-30T11:47:57;0.17;;;0.15;;
61505;SDS011;47366;51.916;4.574;2024-01-30T11:50:25;1.02;;;0.47;;
61505;SDS011;47366;51.916;4.574;2024-01-30T11:52:50;1.02;;;0.30;;
61505;SDS011;47366;51.916;4.574;2024-01-30T11:55:16;0.65;;;0.20;;
61505;SDS011;47366;51.916;4.574;2024-01-30T11:57:42;2.60;;;0.20;;
61505;SDS011;47366;51.916;4.574;2024-01-30T12:00:16;0.75;;;0.20;;
61505;SDS011;47366;51.916;4.574;2024-01-30T12:02:52;2.50;;;0.30;;
61505;SDS011;47366;51.916;4.574;2024-01-30T12:05:25;0.20;;;0.10;;
61505;SDS011;47366;51.916;4.574;2024-01-30T12:07:50;0.75;;;0.45;;
61505;SDS011;47366;51.916;4.574;2024-01-30T12:10:16;0.50;;;0.28;;
61505;SDS011;47366;51.916;4.574;2024-01-30T12:12:43;1.65;;;0.20;;
61505;SDS011;47366;51.916;4.574;2024-01-30T12:15:10;0.47;;;0.40;;
61505;SDS011;47366;51.916;4.574;2024-01-30T12:17:36;0.13;;;0.10;;
61505;SDS011;47366;51.916;4.574;2024-01-30T12:22:31;0.65;;;0.25;;
61505;SDS011;47366;51.916;4.574;2024-01-30T12:25:07;0.10;;;0.10;;
61505;SDS011;47366;51.916;4.574;2024-01-30T12:27:37;0.10;;;0.10;;
61505;SDS011;47366;51.916;4.574;2024-01-30T12:30:06;0.10;;;0.00;;
61505;SDS011;47366;51.916;4.574;2024-01-30T12:32:34;0.73;;;0.20;;
61505;SDS011;47366;51.916;4.574;2024-01-30T12:35:07;0.25;;;0.25;;
61505;SDS011;47366;51.916;4.574;2024-01-30T12:37:34;0.10;;;0.10;;
61505;SDS011;47366;51.916;4.574;2024-01-30T12:40:00;4.47;;;0.38;;
61505;SDS011;47366;51.916;4.574;2024-01-30T12:42:26;0.20;;;0.10;;
61505;SDS011;47366;51.916;4.574;2024-01-30T12:44:52;1.77;;;0.43;;
61505;SDS011;47366;51.916;4.574;2024-01-30T12:47:17;0.00;;;0.00;;
61505;SDS011;47366;51.916;4.574;2024-01-30T12:49:45;0.47;;;0.43;;
61505;SDS011;47366;51.916;4.574;2024-01-30T12:52:11;0.13;;;0.08;;
61505;SDS011;47366;51.916;4.574;2024-01-30T12:54:39;0.70;;;0.38;;
61505;SDS011;47366;51.916;4.574;2024-01-30T12:57:05;1.98;;;0.20;;
61505;SDS011;47366;51.916;4.574;2024-01-30T12:59:31;2.65;;;0.40;;
61505;SDS011;47366;51.916;4.574;2024-01-30T13:01:56;0.15;;;0.10;;
61505;SDS011;47366;51.916;4.574;2024-01-30T13:04:22;0.40;;;0.30;;
61505;SDS011;47366;51.916;4.574;2024-01-30T13:06:48;0.80;;;0.20;;
61505;SDS011;47366;51.916;4.574;2024-01-30T13:09:13;0.32;;;0.17;;
61505;SDS011;47366;51.916;4.574;2024-01-30T13:11:39;3.78;;;0.70;;
61505;SDS011;47366;51.916;4.574;2024-01-30T13:14:04;0.00;;;0.00;;
61505;SDS011;47366;51.916;4.574;2024-01-30T13:16:29;0.40;;;0.20;;
61505;SDS011;47366;51.916;4.574;2024-01-30T13:18:55;1.88;;;0.38;;
61505;SDS011;47366;51.916;4.574;2024-01-30T13:21:20;3.28;;;0.28;;
61505;SDS011;47366;51.916;4.574;2024-01-30T13:23:46;0.52;;;0.32;;
61505;SDS011;47366;51.916;4.574;2024-01-30T13:26:11;0.65;;;0.32;;
61505;SDS011;47366;51.916;4.574;2024-01-30T13:28:37;0.10;;;0.10;;
61505;SDS011;47366;51.916;4.574;2024-01-30T13:31:02;0.10;;;0.10;;
61505;SDS011;47366;51.916;4.574;2024-01-30T13:33:28;2.38;;;0.38;;
61505;SDS011;47366;51.916;4.574;2024-01-30T13:35:53;0.50;;;0.22;;
61505;SDS011;47366;51.916;4.574;2024-01-30T13:38:19;2.13;;;0.52;;
61505;SDS011;47366;51.916;4.574;2024-01-30T13:40:44;0.30;;;0.25;;
61505;SDS011;47366;51.916;4.574;2024-01-30T13:43:09;0.30;;;0.20;;
61505;SDS011;47366;51.916;4.574;2024-01-30T13:45:34;0.52;;;0.30;;
61505;SDS011;47366;51.916;4.574;2024-01-30T13:48:00;0.82;;;0.35;;
61505;SDS011;47366;51.916;4.574;2024-01-30T13:50:26;3.70;;;0.30;;
61505;SDS011;47366;51.916;4.574;2024-01-30T13:52:51;0.40;;;0.28;;
61505;SDS011;47366;51.916;4.574;2024-01-30T13:55:16;0.20;;;0.20;;
61505;SDS011;47366;51.916;4.574;2024-01-30T13:57:42;1.35;;;0.30;;
61505;SDS011;47366;51.916;4.574;2024-01-30T14:00:07;0.40;;;0.40;;
61505;SDS011;47366;51.916;4.574;2024-01-30T14:02:34;0.90;;;0.30;;
61505;SDS011;47366;51.916;4.574;2024-01-30T14:04:59;1.73;;;0.35;;
61505;SDS011;47366;51.916;4.574;2024-01-30T14:07:24;0.65;;;0.47;;
61505;SDS011;47366;51.916;4.574;2024-01-30T14:09:50;1.42;;;0.50;;
61505;SDS011;47366;51.916;4.574;2024-01-30T14:12:15;0.52;;;0.35;;
61505;SDS011;47366;51.916;4.574;2024-01-30T14:14:41;1.15;;;0.50;;
61505;SDS011;47366;51.916;4.574;2024-01-30T14:17:06;0.30;;;0.25;;
61505;SDS011;47366;51.916;4.574;2024-01-30T14:19:33;0.45;;;0.38;;
61505;SDS011;47366;51.916;4.574;2024-01-30T14:21:59;0.38;;;0.38;;
61505;SDS011;47366;51.916;4.574;2024-01-30T14:24:24;0.35;;;0.22;;
61505;SDS011;47366;51.916;4.574;2024-01-30T14:26:49;2.10;;;0.68;;
61505;SDS011;47366;51.916;4.574;2024-01-30T14:29:15;1.67;;;0.70;;
61505;SDS011;47366;51.916;4.574;2024-01-30T14:31:40;1.30;;;0.73;;
61505;SDS011;47366;51.916;4.574;2024-01-30T14:34:07;0.60;;;0.60;;
61505;SDS011;47366;51.916;4.574;2024-01-30T14:36:35;1.90;;;0.55;;
61505;SDS011;47366;51.916;4.574;2024-01-30T14:39:01;0.65;;;0.40;;
61505;SDS011;47366;51.916;4.574;2024-01-30T14:41:28;0.82;;;0.52;;
61505;SDS011;47366;51.916;4.574;2024-01-30T14:43:53;1.88;;;0.68;;